sensor_id;sensor_type;location;lat;lon;timestamp;P1;durP1;ratioP1;P2;durP2;ratioP2
27746;SDS011;15138;51.012;4.692;2023-06-22T00:16:04;5.15;;;2.80;;
27746;SDS011;15138;51.012;4.692;2023-06-22T00:18:33;5.85;;;3.50;;
27746;SDS011;15138;51.012;4.692;2023-06-22T00:21:01;4.28;;;2.92;;
27746;SDS011;15138;51.012;4.692;2023-06-22T00:23:30;7.78;;;2.35;;
27746;SDS011;15138;51.012;4.692;2023-06-22T00:26:01;9.65;;;2.33;;
27746;SDS011;15138;51.012;4.692;2023-06-22T00:46:10;4.85;;;2.60;;
27746;SDS011;15138;51.012;4.692;2023-06-22T00:51:10;3.13;;;2.45;;
27746;SDS011;15138;51.012;4.692;2023-06-22T00:53:38;6.38;;;2.65;;
27746;SDS011;15138;51.012;4.692;2023-06-22T00:56:07;3.78;;;2.50;;
27746;SDS011;15138;51.012;4.692;2023-06-22T00:58:38;4.72;;;2.70;;
27746;SDS011;15138;51.012;4.692;2023-06-22T01:01:08;6.50;;;2.75;;
27746;SDS011;15138;51.012;4.692;2023-06-22T01:03:37;4.85;;;2.67;;
27746;SDS011;15138;51.012;4.692;2023-06-22T01:06:07;6.15;;;3.08;;
27746;SDS011;15138;51.012;4.692;2023-06-22T01:08:39;5.72;;;2.53;;
27746;SDS011;15138;51.012;4.692;2023-06-22T01:11:10;7.50;;;2.35;;
27746;SDS011;15138;51.012;4.692;2023-06-22T01:13:41;13.07;;;2.80;;
27746;SDS011;15138;51.012;4.692;2023-06-22T01:16:13;6.45;;;2.85;;
27746;SDS011;15138;51.012;4.692;2023-06-22T01:18:44;4.70;;;3.13;;
27746;SDS011;15138;51.012;4.692;2023-06-22T01:21:15;7.38;;;3.45;;
27746;SDS011;15138;51.012;4.692;2023-06-22T01:23:51;6.47;;;3.42;;
27746;SDS011;15138;51.012;4.692;2023-06-22T01:26:25;4.93;;;2.60;;
27746;SDS011;15138;51.012;4.692;2023-06-22T01:28:58;6.88;;;2.53;;
27746;SDS011;15138;51.012;4.692;2023-06-22T01:31:27;6.63;;;2.50;;
27746;SDS011;15138;51.012;4.692;2023-06-22T01:33:58;3.00;;;2.42;;
27746;SDS011;15138;51.012;4.692;2023-06-22T01:36:27;4.38;;;2.63;;
27746;SDS011;15138;51.012;4.692;2023-06-22T01:38:56;3.53;;;2.50;;
27746;SDS011;15138;51.012;4.692;2023-06-22T01:41:25;5.47;;;2.70;;
27746;SDS011;15138;51.012;4.692;2023-06-22T01:43:54;4.95;;;2.60;;
27746;SDS011;15138;51.012;4.692;2023-06-22T01:46:25;4.45;;;2.60;;
27746;SDS011;15138;51.012;4.692;2023-06-22T01:48:53;5.20;;;2.92;;
27746;SDS011;15138;51.012;4.692;2023-06-22T01:51:22;5.53;;;2.90;;
27746;SDS011;15138;51.012;4.692;2023-06-22T01:53:50;4.43;;;3.00;;
27746;SDS011;15138;51.012;4.692;2023-06-22T01:56:19;4.68;;;2.42;;
27746;SDS011;15138;51.012;4.692;2023-06-22T01:58:49;3.53;;;2.40;;
27746;SDS011;15138;51.012;4.692;2023-06-22T02:01:20;6.38;;;3.47;;
27746;SDS011;15138;51.012;4.692;2023-06-22T02:03:55;5.70;;;2.58;;
27746;SDS011;15138;51.012;4.692;2023-06-22T02:06:27;3.40;;;2.30;;
27746;SDS011;15138;51.012;4.692;2023-06-22T02:09:02;4.57;;;3.03;;
27746;SDS011;15138;51.012;4.692;2023-06-22T02:11:30;2.83;;;2.30;;
27746;SDS011;15138;51.012;4.692;2023-06-22T02:13:59;4.05;;;2.80;;
27746;SDS011;15138;51.012;4.692;2023-06-22T02:16:28;7.47;;;3.05;;
27746;SDS011;15138;51.012;4.692;2023-06-22T02:19:00;3.90;;;2.60;;
27746;SDS011;15138;51.012;4.692;2023-06-22T02:21:30;3.92;;;2.40;;
27746;SDS011;15138;51.012;4.692;2023-06-22T02:23:58;6.07;;;2.97;;
27746;SDS011;15138;51.012;4.692;2023-06-22T02:26:27;3.92;;;2.53;;
27746;SDS011;15138;51.012;4.692;2023-06-22T02:28:55;6.45;;;3.10;;
27746;SDS011;15138;51.012;4.692;2023-06-22T02:31:24;4.05;;;2.88;;
27746;SDS011;15138;51.012;4.692;2023-06-22T02:33:57;2.72;;;2.13;;
27746;SDS011;15138;51.012;4.692;2023-06-22T02:36:27;5.93;;;3.72;;
27746;SDS011;15138;51.012;4.692;2023-06-22T02:38:57;4.90;;;3.05;;
27746;SDS011;15138;51.012;4.692;2023-06-22T02:41:27;5.78;;;3.58;;
27746;SDS011;15138;51.012;4.692;2023-06-22T02:43:56;6.07;;;2.58;;
27746;SDS011;15138;51.012;4.692;2023-06-22T02:46:24;5.57;;;2.80;;
27746;SDS011;15138;51.012;4.692;2023-06-22T02:48:53;7.93;;;3.67;;
27746;SDS011;15138;51.012;4.692;2023-06-22T02:51:21;4.25;;;3.20;;
27746;SDS011;15138;51.012;4.692;2023-06-22T02:53:51;5.70;;;4.05;;
27746;SDS011;15138;51.012;4.692;2023-06-22T02:56:24;5.53;;;3.45;;
27746;SDS011;15138;51.012;4.692;2023-06-22T02:58:52;4.63;;;2.97;;
27746;SDS011;15138;51.012;4.692;2023-06-22T03:01:20;3.55;;;2.78;;
27746;SDS011;15138;51.012;4.692;2023-06-22T03:03:50;9.85;;;4.00;;
27746;SDS011;15138;51.012;4.692;2023-06-22T03:06:19;6.63;;;3.90;;
27746;SDS011;15138;51.012;4.692;2023-06-22T03:08:50;7.30;;;3.72;;
27746;SDS011;15138;51.012;4.692;2023-06-22T03:11:19;7.78;;;3.72;;
27746;SDS011;15138;51.012;4.692;2023-06-22T03:13:47;5.45;;;3.88;;
27746;SDS011;15138;51.012;4.692;2023-06-22T03:16:18;4.97;;;3.78;;
27746;SDS011;15138;51.012;4.692;2023-06-22T03:18:46;6.63;;;3.67;;
27746;SDS011;15138;51.012;4.692;2023-06-22T03:21:15;7.32;;;5.20;;
27746;SDS011;15138;51.012;4.692;2023-06-22T03:23:43;7.50;;;3.38;;
27746;SDS011;15138;51.012;4.692;2023-06-22T03:26:17;5.15;;;3.00;;
27746;SDS011;15138;51.012;4.692;2023-06-22T03:28:46;6.68;;;3.70;;
27746;SDS011;15138;51.012;4.692;2023-06-22T03:31:14;6.53;;;4.22;;
27746;SDS011;15138;51.012;4.692;2023-06-22T03:33:48;5.28;;;3.75;;
27746;SDS011;15138;51.012;4.692;2023-06-22T03:36:17;7.05;;;3.53;;
27746;SDS011;15138;51.012;4.692;2023-06-22T03:38:46;6.93;;;3.60;;
27746;SDS011;15138;51.012;4.692;2023-06-22T03:41:16;7.30;;;3.88;;
27746;SDS011;15138;51.012;4.692;2023-06-22T03:43:45;7.43;;;4.28;;
27746;SDS011;15138;51.012;4.692;2023-06-22T03:46:14;4.47;;;3.58;;
27746;SDS011;15138;51.012;4.692;2023-06-22T03:48:42;7.43;;;4.32;;
27746;SDS011;15138;51.012;4.692;2023-06-22T03:51:11;5.60;;;4.35;;
27746;SDS011;15138;51.012;4.692;2023-06-22T03:53:39;9.63;;;5.57;;
27746;SDS011;15138;51.012;4.692;2023-06-22T03:56:07;9.25;;;5.72;;
27746;SDS011;15138;51.012;4.692;2023-06-22T03:58:37;9.20;;;6.55;;
27746;SDS011;15138;51.012;4.692;2023-06-22T04:01:09;6.05;;;3.78;;
27746;SDS011;15138;51.012;4.692;2023-06-22T04:03:38;6.97;;;4.35;;
27746;SDS011;15138;51.012;4.692;2023-06-22T04:06:07;7.90;;;4.93;;
27746;SDS011;15138;51.012;4.692;2023-06-22T04:08:35;10.45;;;5.85;;
27746;SDS011;15138;51.012;4.692;2023-06-22T04:11:03;10.63;;;5.90;;
27746;SDS011;15138;51.012;4.692;2023-06-22T04:13:32;7.82;;;4.93;;
27746;SDS011;15138;51.012;4.692;2023-06-22T04:16:02;9.15;;;4.75;;
27746;SDS011;15138;51.012;4.692;2023-06-22T04:18:30;8.88;;;4.07;;
27746;SDS011;15138;51.012;4.692;2023-06-22T04:20:59;10.30;;;6.50;;
27746;SDS011;15138;51.012;4.692;2023-06-22T04:23:27;6.93;;;4.13;;
27746;SDS011;15138;51.012;4.692;2023-06-22T04:25:56;6.90;;;4.03;;
27746;SDS011;15138;51.012;4.692;2023-06-22T04:28:24;9.18;;;5.97;;
27746;SDS011;15138;51.012;4.692;2023-06-22T04:30:53;9.00;;;4.75;;
27746;SDS011;15138;51.012;4.692;2023-06-22T04:33:26;8.02;;;5.32;;
27746;SDS011;15138;51.012;4.692;2023-06-22T04:35:55;7.88;;;4.97;;
27746;SDS011;15138;51.012;4.692;2023-06-22T04:38:24;17.13;;;8.32;;
27746;SDS011;15138;51.012;4.692;2023-06-22T04:40:53;10.93;;;6.50;;
27746;SDS011;15138;51.012;4.692;2023-06-22T04:43:21;12.27;;;7.50;;
27746;SDS011;15138;51.012;4.692;2023-06-22T04:45:49;10.77;;;6.85;;
27746;SDS011;15138;51.012;4.692;2023-06-22T04:48:19;7.50;;;4.18;;
27746;SDS011;15138;51.012;4.692;2023-06-22T04:50:49;11.38;;;6.78;;
27746;SDS011;15138;51.012;4.692;2023-06-22T04:53:17;8.70;;;5.97;;
27746;SDS011;15138;51.012;4.692;2023-06-22T04:55:45;12.60;;;6.53;;
27746;SDS011;15138;51.012;4.692;2023-06-22T04:58:15;10.15;;;5.80;;
27746;SDS011;15138;51.012;4.692;2023-06-22T05:00:46;11.38;;;6.80;;
27746;SDS011;15138;51.012;4.692;2023-06-22T05:03:18;9.07;;;6.15;;
27746;SDS011;15138;51.012;4.692;2023-06-22T05:05:47;8.90;;;4.40;;
27746;SDS011;15138;51.012;4.692;2023-06-22T05:08:19;11.02;;;6.60;;
27746;SDS011;15138;51.012;4.692;2023-06-22T05:10:48;17.80;;;7.88;;
27746;SDS011;15138;51.012;4.692;2023-06-22T05:13:31;10.57;;;7.45;;
27746;SDS011;15138;51.012;4.692;2023-06-22T05:16:00;11.32;;;6.82;;
27746;SDS011;15138;51.012;4.692;2023-06-22T05:18:29;7.93;;;5.03;;
27746;SDS011;15138;51.012;4.692;2023-06-22T05:20:58;18.33;;;9.10;;
27746;SDS011;15138;51.012;4.692;2023-06-22T05:23:28;14.52;;;8.73;;
27746;SDS011;15138;51.012;4.692;2023-06-22T05:25:56;11.43;;;7.25;;
27746;SDS011;15138;51.012;4.692;2023-06-22T05:28:25;14.30;;;9.50;;
27746;SDS011;15138;51.012;4.692;2023-06-22T05:30:53;8.48;;;6.32;;
27746;SDS011;15138;51.012;4.692;2023-06-22T05:33:22;6.47;;;5.00;;
27746;SDS011;15138;51.012;4.692;2023-06-22T05:35:50;6.38;;;4.32;;
27746;SDS011;15138;51.012;4.692;2023-06-22T05:38:19;10.45;;;6.82;;
27746;SDS011;15138;51.012;4.692;2023-06-22T05:40:49;9.13;;;5.40;;
27746;SDS011;15138;51.012;4.692;2023-06-22T05:43:17;12.88;;;8.25;;
27746;SDS011;15138;51.012;4.692;2023-06-22T05:45:46;10.90;;;6.25;;
27746;SDS011;15138;51.012;4.692;2023-06-22T05:48:14;12.10;;;5.30;;
27746;SDS011;15138;51.012;4.692;2023-06-22T05:50:42;11.93;;;6.78;;
27746;SDS011;15138;51.012;4.692;2023-06-22T05:53:11;11.07;;;7.40;;
27746;SDS011;15138;51.012;4.692;2023-06-22T05:55:39;12.35;;;7.45;;
27746;SDS011;15138;51.012;4.692;2023-06-22T05:58:10;12.32;;;8.35;;
27746;SDS011;15138;51.012;4.692;2023-06-22T06:00:39;10.93;;;7.60;;
27746;SDS011;15138;51.012;4.692;2023-06-22T06:03:08;11.20;;;7.78;;
27746;SDS011;15138;51.012;4.692;2023-06-22T06:05:40;10.77;;;6.05;;
27746;SDS011;15138;51.012;4.692;2023-06-22T06:08:09;14.63;;;8.88;;
27746;SDS011;15138;51.012;4.692;2023-06-22T06:10:38;10.77;;;6.30;;
27746;SDS011;15138;51.012;4.692;2023-06-22T06:13:07;9.70;;;5.55;;
27746;SDS011;15138;51.012;4.692;2023-06-22T06:15:37;12.50;;;8.75;;
27746;SDS011;15138;51.012;4.692;2023-06-22T06:18:06;10.63;;;6.35;;
27746;SDS011;15138;51.012;4.692;2023-06-22T06:20:34;12.63;;;8.10;;
27746;SDS011;15138;51.012;4.692;2023-06-22T06:23:03;12.40;;;6.57;;
27746;SDS011;15138;51.012;4.692;2023-06-22T06:25:31;13.73;;;7.53;;
27746;SDS011;15138;51.012;4.692;2023-06-22T06:28:00;11.20;;;8.68;;
27746;SDS011;15138;51.012;4.692;2023-06-22T06:30:28;13.18;;;7.05;;
27746;SDS011;15138;51.012;4.692;2023-06-22T06:32:58;13.50;;;8.10;;
27746;SDS011;15138;51.012;4.692;2023-06-22T06:35:27;12.93;;;8.80;;
27746;SDS011;15138;51.012;4.692;2023-06-22T06:37:56;12.95;;;8.55;;
27746;SDS011;15138;51.012;4.692;2023-06-22T06:40:24;13.88;;;8.00;;
27746;SDS011;15138;51.012;4.692;2023-06-22T06:42:54;14.05;;;8.07;;
27746;SDS011;15138;51.012;4.692;2023-06-22T06:45:22;15.23;;;10.70;;
27746;SDS011;15138;51.012;4.692;2023-06-22T06:47:51;17.20;;;10.90;;
27746;SDS011;15138;51.012;4.692;2023-06-22T06:50:21;14.90;;;8.70;;
27746;SDS011;15138;51.012;4.692;2023-06-22T06:52:50;22.35;;;12.60;;
27746;SDS011;15138;51.012;4.692;2023-06-22T06:55:18;13.95;;;9.57;;
27746;SDS011;15138;51.012;4.692;2023-06-22T06:57:47;17.67;;;10.70;;
27746;SDS011;15138;51.012;4.692;2023-06-22T07:00:16;19.42;;;11.50;;
27746;SDS011;15138;51.012;4.692;2023-06-22T07:02:45;17.20;;;13.18;;
27746;SDS011;15138;51.012;4.692;2023-06-22T07:05:15;17.30;;;10.35;;
27746;SDS011;15138;51.012;4.692;2023-06-22T07:07:45;16.42;;;10.82;;
27746;SDS011;15138;51.012;4.692;2023-06-22T07:10:13;15.77;;;10.77;;
27746;SDS011;15138;51.012;4.692;2023-06-22T07:12:42;22.05;;;13.10;;
27746;SDS011;15138;51.012;4.692;2023-06-22T07:15:11;15.75;;;11.00;;
27746;SDS011;15138;51.012;4.692;2023-06-22T07:17:39;15.80;;;10.98;;
27746;SDS011;15138;51.012;4.692;2023-06-22T07:20:08;18.92;;;12.40;;
27746;SDS011;15138;51.012;4.692;2023-06-22T07:22:39;13.07;;;9.02;;
27746;SDS011;15138;51.012;4.692;2023-06-22T07:25:09;17.88;;;12.05;;
27746;SDS011;15138;51.012;4.692;2023-06-22T07:27:43;18.48;;;9.60;;
27746;SDS011;15138;51.012;4.692;2023-06-22T07:30:12;12.13;;;8.18;;
27746;SDS011;15138;51.012;4.692;2023-06-22T07:32:41;16.33;;;11.18;;
27746;SDS011;15138;51.012;4.692;2023-06-22T07:35:09;14.13;;;9.75;;
27746;SDS011;15138;51.012;4.692;2023-06-22T07:37:38;16.63;;;8.65;;
27746;SDS011;15138;51.012;4.692;2023-06-22T07:40:06;13.85;;;10.15;;
27746;SDS011;15138;51.012;4.692;2023-06-22T07:42:37;17.63;;;11.02;;
27746;SDS011;15138;51.012;4.692;2023-06-22T07:45:06;14.25;;;10.18;;
27746;SDS011;15138;51.012;4.692;2023-06-22T07:47:35;14.32;;;8.55;;
27746;SDS011;15138;51.012;4.692;2023-06-22T07:50:04;15.23;;;10.10;;
27746;SDS011;15138;51.012;4.692;2023-06-22T07:52:33;14.43;;;8.35;;
27746;SDS011;15138;51.012;4.692;2023-06-22T07:55:01;18.48;;;8.32;;
27746;SDS011;15138;51.012;4.692;2023-06-22T07:57:30;13.73;;;8.13;;
27746;SDS011;15138;51.012;4.692;2023-06-22T08:00:04;13.35;;;9.02;;
27746;SDS011;15138;51.012;4.692;2023-06-22T08:02:39;14.02;;;6.88;;
27746;SDS011;15138;51.012;4.692;2023-06-22T08:05:08;14.00;;;7.72;;
27746;SDS011;15138;51.012;4.692;2023-06-22T08:07:40;17.33;;;10.48;;
27746;SDS011;15138;51.012;4.692;2023-06-22T08:10:12;11.02;;;5.70;;
27746;SDS011;15138;51.012;4.692;2023-06-22T08:12:41;9.18;;;6.45;;
27746;SDS011;15138;51.012;4.692;2023-06-22T08:15:10;8.68;;;6.43;;
27746;SDS011;15138;51.012;4.692;2023-06-22T08:17:39;12.75;;;7.75;;
27746;SDS011;15138;51.012;4.692;2023-06-22T08:20:08;17.10;;;9.43;;
27746;SDS011;15138;51.012;4.692;2023-06-22T08:22:38;10.07;;;5.75;;
27746;SDS011;15138;51.012;4.692;2023-06-22T08:25:07;12.40;;;6.63;;
27746;SDS011;15138;51.012;4.692;2023-06-22T08:27:36;11.20;;;7.65;;
27746;SDS011;15138;51.012;4.692;2023-06-22T08:30:05;8.32;;;5.65;;
27746;SDS011;15138;51.012;4.692;2023-06-22T08:32:36;13.25;;;4.97;;
27746;SDS011;15138;51.012;4.692;2023-06-22T08:35:04;9.57;;;6.13;;
27746;SDS011;15138;51.012;4.692;2023-06-22T08:37:34;9.50;;;5.20;;
27746;SDS011;15138;51.012;4.692;2023-06-22T08:40:06;8.85;;;5.93;;
27746;SDS011;15138;51.012;4.692;2023-06-22T08:42:35;12.05;;;5.57;;
27746;SDS011;15138;51.012;4.692;2023-06-22T08:45:04;7.82;;;5.22;;
27746;SDS011;15138;51.012;4.692;2023-06-22T08:47:33;6.60;;;4.57;;
27746;SDS011;15138;51.012;4.692;2023-06-22T08:50:03;7.47;;;4.72;;
27746;SDS011;15138;51.012;4.692;2023-06-22T08:52:32;7.43;;;4.45;;
27746;SDS011;15138;51.012;4.692;2023-06-22T08:55:00;9.10;;;5.78;;
27746;SDS011;15138;51.012;4.692;2023-06-22T08:57:28;9.30;;;5.10;;
27746;SDS011;15138;51.012;4.692;2023-06-22T08:59:59;6.55;;;5.10;;
27746;SDS011;15138;51.012;4.692;2023-06-22T09:02:27;6.68;;;5.03;;
27746;SDS011;15138;51.012;4.692;2023-06-22T09:04:58;7.20;;;5.20;;
27746;SDS011;15138;51.012;4.692;2023-06-22T09:07:29;9.27;;;5.60;;
27746;SDS011;15138;51.012;4.692;2023-06-22T09:09:57;6.60;;;4.88;;
27746;SDS011;15138;51.012;4.692;2023-06-22T09:12:29;7.50;;;5.28;;
27746;SDS011;15138;51.012;4.692;2023-06-22T09:14:59;9.30;;;4.22;;
27746;SDS011;15138;51.012;4.692;2023-06-22T09:17:28;9.43;;;4.57;;
27746;SDS011;15138;51.012;4.692;2023-06-22T09:19:57;7.90;;;3.70;;
27746;SDS011;15138;51.012;4.692;2023-06-22T09:22:26;12.63;;;4.88;;
27746;SDS011;15138;51.012;4.692;2023-06-22T09:24:57;6.25;;;3.83;;
27746;SDS011;15138;51.012;4.692;2023-06-22T09:27:26;11.32;;;4.63;;
27746;SDS011;15138;51.012;4.692;2023-06-22T09:29:54;8.50;;;4.40;;
27746;SDS011;15138;51.012;4.692;2023-06-22T09:32:24;10.88;;;3.75;;
27746;SDS011;15138;51.012;4.692;2023-06-22T09:34:53;6.97;;;3.90;;
27746;SDS011;15138;51.012;4.692;2023-06-22T09:37:21;9.95;;;4.03;;
27746;SDS011;15138;51.012;4.692;2023-06-22T09:39:50;8.60;;;4.75;;
27746;SDS011;15138;51.012;4.692;2023-06-22T09:42:20;4.72;;;3.45;;
27746;SDS011;15138;51.012;4.692;2023-06-22T09:44:48;6.22;;;4.38;;
27746;SDS011;15138;51.012;4.692;2023-06-22T09:47:17;9.75;;;4.93;;
27746;SDS011;15138;51.012;4.692;2023-06-22T09:49:45;10.32;;;5.28;;
27746;SDS011;15138;51.012;4.692;2023-06-22T09:52:14;7.80;;;5.55;;
27746;SDS011;15138;51.012;4.692;2023-06-22T09:54:42;9.13;;;4.15;;
27746;SDS011;15138;51.012;4.692;2023-06-22T09:57:11;9.60;;;4.90;;
27746;SDS011;15138;51.012;4.692;2023-06-22T09:59:41;7.03;;;4.70;;
27746;SDS011;15138;51.012;4.692;2023-06-22T10:02:09;7.50;;;4.30;;
27746;SDS011;15138;51.012;4.692;2023-06-22T10:04:38;9.85;;;5.72;;
27746;SDS011;15138;51.012;4.692;2023-06-22T10:07:07;9.25;;;5.70;;
27746;SDS011;15138;51.012;4.692;2023-06-22T10:09:35;10.57;;;5.35;;
27746;SDS011;15138;51.012;4.692;2023-06-22T10:12:04;8.82;;;4.40;;
27746;SDS011;15138;51.012;4.692;2023-06-22T10:14:33;9.48;;;4.80;;
27746;SDS011;15138;51.012;4.692;2023-06-22T10:17:03;14.65;;;5.38;;
27746;SDS011;15138;51.012;4.692;2023-06-22T10:19:33;9.05;;;5.22;;
27746;SDS011;15138;51.012;4.692;2023-06-22T10:22:03;15.23;;;6.82;;
27746;SDS011;15138;51.012;4.692;2023-06-22T10:24:32;12.30;;;7.13;;
27746;SDS011;15138;51.012;4.692;2023-06-22T10:27:00;11.98;;;6.25;;
27746;SDS011;15138;51.012;4.692;2023-06-22T10:29:29;12.55;;;7.28;;
27746;SDS011;15138;51.012;4.692;2023-06-22T10:31:57;11.70;;;6.18;;
27746;SDS011;15138;51.012;4.692;2023-06-22T10:34:27;12.00;;;4.85;;
27746;SDS011;15138;51.012;4.692;2023-06-22T10:36:56;10.50;;;5.38;;
27746;SDS011;15138;51.012;4.692;2023-06-22T10:39:24;7.95;;;5.32;;
27746;SDS011;15138;51.012;4.692;2023-06-22T10:41:52;10.65;;;5.65;;
27746;SDS011;15138;51.012;4.692;2023-06-22T10:44:22;10.05;;;5.40;;
27746;SDS011;15138;51.012;4.692;2023-06-22T10:46:50;9.93;;;6.38;;
27746;SDS011;15138;51.012;4.692;2023-06-22T10:49:19;10.95;;;6.70;;
27746;SDS011;15138;51.012;4.692;2023-06-22T10:51:49;11.82;;;7.85;;
27746;SDS011;15138;51.012;4.692;2023-06-22T10:54:17;12.10;;;6.85;;
27746;SDS011;15138;51.012;4.692;2023-06-22T10:56:46;10.50;;;6.63;;
27746;SDS011;15138;51.012;4.692;2023-06-22T10:59:14;9.65;;;5.75;;
27746;SDS011;15138;51.012;4.692;2023-06-22T11:01:42;9.00;;;5.80;;
27746;SDS011;15138;51.012;4.692;2023-06-22T11:04:11;13.15;;;9.18;;
27746;SDS011;15138;51.012;4.692;2023-06-22T11:06:39;11.43;;;7.53;;
27746;SDS011;15138;51.012;4.692;2023-06-22T11:09:09;15.90;;;10.35;;
27746;SDS011;15138;51.012;4.692;2023-06-22T11:11:42;12.32;;;7.82;;
27746;SDS011;15138;51.012;4.692;2023-06-22T11:14:11;10.63;;;6.72;;
27746;SDS011;15138;51.012;4.692;2023-06-22T11:16:39;16.20;;;9.27;;
27746;SDS011;15138;51.012;4.692;2023-06-22T11:19:08;16.42;;;11.50;;
27746;SDS011;15138;51.012;4.692;2023-06-22T11:21:36;14.75;;;10.35;;
27746;SDS011;15138;51.012;4.692;2023-06-22T11:24:05;17.23;;;11.85;;
27746;SDS011;15138;51.012;4.692;2023-06-22T11:26:35;18.27;;;13.93;;
27746;SDS011;15138;51.012;4.692;2023-06-22T11:29:03;21.30;;;16.10;;
27746;SDS011;15138;51.012;4.692;2023-06-22T11:31:32;22.23;;;16.48;;
27746;SDS011;15138;51.012;4.692;2023-06-22T11:34:01;24.13;;;18.15;;
27746;SDS011;15138;51.012;4.692;2023-06-22T11:36:29;17.75;;;12.98;;
27746;SDS011;15138;51.012;4.692;2023-06-22T11:38:59;21.25;;;15.48;;
27746;SDS011;15138;51.012;4.692;2023-06-22T11:41:33;17.27;;;12.95;;
27746;SDS011;15138;51.012;4.692;2023-06-22T11:44:02;17.05;;;12.05;;
27746;SDS011;15138;51.012;4.692;2023-06-22T11:46:31;13.70;;;9.63;;
27746;SDS011;15138;51.012;4.692;2023-06-22T11:49:01;13.43;;;9.15;;
27746;SDS011;15138;51.012;4.692;2023-06-22T11:51:29;19.80;;;13.23;;
27746;SDS011;15138;51.012;4.692;2023-06-22T11:53:58;12.52;;;8.27;;
27746;SDS011;15138;51.012;4.692;2023-06-22T11:56:27;16.30;;;11.35;;
27746;SDS011;15138;51.012;4.692;2023-06-22T11:58:56;19.33;;;11.98;;
27746;SDS011;15138;51.012;4.692;2023-06-22T12:01:26;13.85;;;9.10;;
27746;SDS011;15138;51.012;4.692;2023-06-22T12:03:54;17.67;;;12.98;;
27746;SDS011;15138;51.012;4.692;2023-06-22T12:06:23;16.48;;;11.52;;
27746;SDS011;15138;51.012;4.692;2023-06-22T12:08:51;16.05;;;11.23;;
27746;SDS011;15138;51.012;4.692;2023-06-22T12:11:20;17.73;;;12.45;;
27746;SDS011;15138;51.012;4.692;2023-06-22T12:13:48;10.48;;;7.97;;
27746;SDS011;15138;51.012;4.692;2023-06-22T12:16:17;16.48;;;12.77;;
27746;SDS011;15138;51.012;4.692;2023-06-22T12:18:49;15.15;;;11.48;;
27746;SDS011;15138;51.012;4.692;2023-06-22T12:21:17;11.65;;;9.18;;
27746;SDS011;15138;51.012;4.692;2023-06-22T12:23:45;16.63;;;11.77;;
27746;SDS011;15138;51.012;4.692;2023-06-22T12:26:14;18.55;;;11.68;;
27746;SDS011;15138;51.012;4.692;2023-06-22T12:28:42;15.73;;;11.25;;
27746;SDS011;15138;51.012;4.692;2023-06-22T12:31:11;14.52;;;10.38;;
27746;SDS011;15138;51.012;4.692;2023-06-22T12:33:39;12.80;;;6.35;;
27746;SDS011;15138;51.012;4.692;2023-06-22T12:36:09;14.52;;;8.20;;
27746;SDS011;15138;51.012;4.692;2023-06-22T12:38:38;18.80;;;11.20;;
27746;SDS011;15138;51.012;4.692;2023-06-22T12:41:06;20.38;;;14.13;;
27746;SDS011;15138;51.012;4.692;2023-06-22T12:43:34;16.10;;;11.50;;
27746;SDS011;15138;51.012;4.692;2023-06-22T12:46:03;18.30;;;9.00;;
27746;SDS011;15138;51.012;4.692;2023-06-22T12:48:31;15.13;;;10.77;;
27746;SDS011;15138;51.012;4.692;2023-06-22T12:51:00;15.32;;;11.98;;
27746;SDS011;15138;51.012;4.692;2023-06-22T12:53:30;28.20;;;20.00;;
27746;SDS011;15138;51.012;4.692;2023-06-22T12:55:58;12.93;;;10.02;;
27746;SDS011;15138;51.012;4.692;2023-06-22T12:58:27;20.08;;;14.45;;
27746;SDS011;15138;51.012;4.692;2023-06-22T13:00:55;18.33;;;11.77;;
27746;SDS011;15138;51.012;4.692;2023-06-22T13:03:23;20.50;;;15.38;;
27746;SDS011;15138;51.012;4.692;2023-06-22T13:05:54;12.82;;;9.50;;
27746;SDS011;15138;51.012;4.692;2023-06-22T13:08:22;19.83;;;13.98;;
27746;SDS011;15138;51.012;4.692;2023-06-22T13:11:12;26.00;;;16.38;;
27746;SDS011;15138;51.012;4.692;2023-06-22T13:13:40;21.95;;;15.73;;
27746;SDS011;15138;51.012;4.692;2023-06-22T13:16:09;16.77;;;11.50;;
27746;SDS011;15138;51.012;4.692;2023-06-22T13:18:37;20.50;;;14.43;;
27746;SDS011;15138;51.012;4.692;2023-06-22T13:21:06;19.23;;;13.98;;
27746;SDS011;15138;51.012;4.692;2023-06-22T13:23:34;26.50;;;17.60;;
27746;SDS011;15138;51.012;4.692;2023-06-22T13:26:03;15.77;;;10.63;;
27746;SDS011;15138;51.012;4.692;2023-06-22T13:28:32;17.88;;;14.50;;
27746;SDS011;15138;51.012;4.692;2023-06-22T13:31:01;15.02;;;9.98;;
27746;SDS011;15138;51.012;4.692;2023-06-22T13:33:29;19.00;;;14.27;;
27746;SDS011;15138;51.012;4.692;2023-06-22T13:35:58;15.85;;;9.90;;
27746;SDS011;15138;51.012;4.692;2023-06-22T13:38:26;15.40;;;12.13;;
27746;SDS011;15138;51.012;4.692;2023-06-22T13:40:55;14.05;;;10.23;;
27746;SDS011;15138;51.012;4.692;2023-06-22T13:43:26;22.67;;;17.77;;
27746;SDS011;15138;51.012;4.692;2023-06-22T13:45:56;15.32;;;10.88;;
27746;SDS011;15138;51.012;4.692;2023-06-22T13:48:24;21.55;;;16.55;;
27746;SDS011;15138;51.012;4.692;2023-06-22T13:50:54;25.35;;;18.05;;
27746;SDS011;15138;51.012;4.692;2023-06-22T13:53:24;22.35;;;14.55;;
27746;SDS011;15138;51.012;4.692;2023-06-22T13:55:52;22.30;;;14.85;;
27746;SDS011;15138;51.012;4.692;2023-06-22T13:58:21;15.65;;;12.02;;
27746;SDS011;15138;51.012;4.692;2023-06-22T14:00:49;23.55;;;15.30;;
27746;SDS011;15138;51.012;4.692;2023-06-22T14:03:21;15.90;;;10.02;;
27746;SDS011;15138;51.012;4.692;2023-06-22T14:05:49;13.50;;;9.68;;
27746;SDS011;15138;51.012;4.692;2023-06-22T14:08:20;15.27;;;11.57;;
27746;SDS011;15138;51.012;4.692;2023-06-22T14:10:52;19.50;;;13.82;;
27746;SDS011;15138;51.012;4.692;2023-06-22T14:13:21;17.48;;;11.63;;
27746;SDS011;15138;51.012;4.692;2023-06-22T14:15:49;16.23;;;10.30;;
27746;SDS011;15138;51.012;4.692;2023-06-22T14:18:18;15.48;;;11.13;;
27746;SDS011;15138;51.012;4.692;2023-06-22T14:20:50;20.67;;;13.82;;
27746;SDS011;15138;51.012;4.692;2023-06-22T14:23:18;13.98;;;9.95;;
27746;SDS011;15138;51.012;4.692;2023-06-22T14:25:46;16.85;;;11.93;;
27746;SDS011;15138;51.012;4.692;2023-06-22T14:28:14;15.48;;;11.90;;
27746;SDS011;15138;51.012;4.692;2023-06-22T14:30:43;20.20;;;14.70;;
27746;SDS011;15138;51.012;4.692;2023-06-22T14:33:12;17.65;;;15.05;;
27746;SDS011;15138;51.012;4.692;2023-06-22T14:35:40;18.70;;;14.85;;
27746;SDS011;15138;51.012;4.692;2023-06-22T14:38:10;18.23;;;15.68;;
27746;SDS011;15138;51.012;4.692;2023-06-22T14:40:38;20.70;;;13.90;;
27746;SDS011;15138;51.012;4.692;2023-06-22T14:43:26;21.83;;;16.90;;
27746;SDS011;15138;51.012;4.692;2023-06-22T14:45:54;17.05;;;13.82;;
27746;SDS011;15138;51.012;4.692;2023-06-22T14:48:22;17.73;;;13.43;;
27746;SDS011;15138;51.012;4.692;2023-06-22T14:50:51;16.77;;;12.13;;
27746;SDS011;15138;51.012;4.692;2023-06-22T14:53:21;15.65;;;11.98;;
27746;SDS011;15138;51.012;4.692;2023-06-22T14:55:50;23.50;;;16.55;;
27746;SDS011;15138;51.012;4.692;2023-06-22T14:58:19;22.48;;;15.90;;
27746;SDS011;15138;51.012;4.692;2023-06-22T15:00:47;21.40;;;14.20;;
27746;SDS011;15138;51.012;4.692;2023-06-22T15:03:16;21.05;;;16.77;;
27746;SDS011;15138;51.012;4.692;2023-06-22T15:05:48;20.42;;;14.73;;
27746;SDS011;15138;51.012;4.692;2023-06-22T15:08:16;21.42;;;16.55;;
27746;SDS011;15138;51.012;4.692;2023-06-22T15:10:46;16.88;;;14.65;;
27746;SDS011;15138;51.012;4.692;2023-06-22T15:13:14;20.52;;;17.42;;
27746;SDS011;15138;51.012;4.692;2023-06-22T15:15:43;20.20;;;15.25;;
27746;SDS011;15138;51.012;4.692;2023-06-22T15:18:12;23.60;;;17.98;;
27746;SDS011;15138;51.012;4.692;2023-06-22T15:20:41;24.45;;;13.30;;
27746;SDS011;15138;51.012;4.692;2023-06-22T15:23:11;21.95;;;15.52;;